sensor_id;sensor_type;location;lat;lon;timestamp;P1;durP1;ratioP1;P2;durP2;ratioP2
68229;SDS011;55048;52.220;5.160;2022-10-20T00:00:15;9.50;;;3.05;;
68229;SDS011;55048;52.220;5.160;2022-10-20T00:02:41;7.82;;;3.17;;
68229;SDS011;55048;52.220;5.160;2022-10-20T00:05:06;7.13;;;2.75;;
68229;SDS011;55048;52.220;5.160;2022-10-20T00:07:32;7.05;;;2.83;;
68229;SDS011;55048;52.220;5.160;2022-10-20T00:09:57;4.15;;;2.75;;
68229;SDS011;55048;52.220;5.160;2022-10-20T00:12:22;7.63;;;3.47;;
68229;SDS011;55048;52.220;5.160;2022-10-20T00:14:48;5.80;;;3.15;;
68229;SDS011;55048;52.220;5.160;2022-10-20T00:17:13;7.47;;;3.42;;
68229;SDS011;55048;52.220;5.160;2022-10-20T00:19:39;7.68;;;2.83;;
68229;SDS011;55048;52.220;5.160;2022-10-20T00:22:04;7.85;;;3.70;;
68229;SDS011;55048;52.220;5.160;2022-10-20T00:24:29;6.55;;;3.00;;
68229;SDS011;55048;52.220;5.160;2022-10-20T00:26:55;6.10;;;3.22;;
68229;SDS011;55048;52.220;5.160;2022-10-20T00:29:20;5.25;;;3.13;;
68229;SDS011;55048;52.220;5.160;2022-10-20T00:31:45;9.02;;;3.63;;
68229;SDS011;55048;52.220;5.160;2022-10-20T00:34:11;5.97;;;3.17;;
68229;SDS011;55048;52.220;5.160;2022-10-20T00:36:36;5.72;;;3.00;;
68229;SDS011;55048;52.220;5.160;2022-10-20T00:39:03;12.60;;;4.05;;
68229;SDS011;55048;52.220;5.160;2022-10-20T00:41:30;4.28;;;3.05;;
68229;SDS011;55048;52.220;5.160;2022-10-20T00:43:57;9.65;;;3.28;;
68229;SDS011;55048;52.220;5.160;2022-10-20T00:46:26;6.00;;;3.47;;
68229;SDS011;55048;52.220;5.160;2022-10-20T00:48:57;9.27;;;3.50;;
68229;SDS011;55048;52.220;5.160;2022-10-20T00:54:02;9.70;;;3.25;;
68229;SDS011;55048;52.220;5.160;2022-10-20T00:56:35;6.68;;;3.13;;
68229;SDS011;55048;52.220;5.160;2022-10-20T00:59:03;5.38;;;3.10;;
68229;SDS011;55048;52.220;5.160;2022-10-20T01:01:30;9.80;;;3.53;;
68229;SDS011;55048;52.220;5.160;2022-10-20T01:03:56;6.70;;;3.40;;
68229;SDS011;55048;52.220;5.160;2022-10-20T01:06:22;6.50;;;3.42;;
68229;SDS011;55048;52.220;5.160;2022-10-20T01:08:48;11.40;;;3.50;;
68229;SDS011;55048;52.220;5.160;2022-10-20T01:11:20;11.13;;;3.92;;
68229;SDS011;55048;52.220;5.160;2022-10-20T01:14:06;6.72;;;3.65;;
68229;SDS011;55048;52.220;5.160;2022-10-20T01:25:09;8.32;;;3.38;;
68229;SDS011;55048;52.220;5.160;2022-10-20T01:27:54;6.32;;;3.95;;
68229;SDS011;55048;52.220;5.160;2022-10-20T01:30:27;7.18;;;4.10;;
68229;SDS011;55048;52.220;5.160;2022-10-20T01:35:32;14.07;;;3.90;;
68229;SDS011;55048;52.220;5.160;2022-10-20T01:38:38;11.20;;;3.90;;
68229;SDS011;55048;52.220;5.160;2022-10-20T01:43:49;11.30;;;3.65;;
68229;SDS011;55048;52.220;5.160;2022-10-20T01:46:16;11.15;;;3.92;;
68229;SDS011;55048;52.220;5.160;2022-10-20T01:48:45;9.32;;;4.07;;
68229;SDS011;55048;52.220;5.160;2022-10-20T01:51:12;10.38;;;4.00;;
68229;SDS011;55048;52.220;5.160;2022-10-20T01:53:37;9.13;;;4.25;;
68229;SDS011;55048;52.220;5.160;2022-10-20T01:56:03;11.02;;;4.40;;
68229;SDS011;55048;52.220;5.160;2022-10-20T02:04:09;6.10;;;4.00;;
68229;SDS011;55048;52.220;5.160;2022-10-20T02:09:37;7.10;;;4.25;;
68229;SDS011;55048;52.220;5.160;2022-10-20T02:12:15;4.57;;;3.85;;
68229;SDS011;55048;52.220;5.160;2022-10-20T02:14:49;10.23;;;4.53;;
68229;SDS011;55048;52.220;5.160;2022-10-20T02:17:16;7.50;;;4.63;;
68229;SDS011;55048;52.220;5.160;2022-10-20T02:19:44;9.50;;;4.20;;
68229;SDS011;55048;52.220;5.160;2022-10-20T02:22:12;14.32;;;4.97;;
68229;SDS011;55048;52.220;5.160;2022-10-20T02:24:42;6.60;;;4.75;;
68229;SDS011;55048;52.220;5.160;2022-10-20T02:27:15;8.98;;;4.88;;
68229;SDS011;55048;52.220;5.160;2022-10-20T02:30:01;9.05;;;4.88;;
68229;SDS011;55048;52.220;5.160;2022-10-20T02:32:27;10.15;;;5.20;;
68229;SDS011;55048;52.220;5.160;2022-10-20T02:34:56;10.18;;;4.75;;
68229;SDS011;55048;52.220;5.160;2022-10-20T02:37:21;8.70;;;5.00;;
68229;SDS011;55048;52.220;5.160;2022-10-20T02:39:46;8.40;;;4.93;;
68229;SDS011;55048;52.220;5.160;2022-10-20T02:42:12;9.25;;;5.18;;
68229;SDS011;55048;52.220;5.160;2022-10-20T02:44:37;6.53;;;4.60;;
68229;SDS011;55048;52.220;5.160;2022-10-20T02:47:03;12.52;;;5.55;;
68229;SDS011;55048;52.220;5.160;2022-10-20T02:49:28;8.93;;;5.70;;
68229;SDS011;55048;52.220;5.160;2022-10-20T02:51:54;11.93;;;5.68;;
68229;SDS011;55048;52.220;5.160;2022-10-20T02:54:19;9.20;;;5.80;;
68229;SDS011;55048;52.220;5.160;2022-10-20T02:56:45;9.02;;;5.38;;
68229;SDS011;55048;52.220;5.160;2022-10-20T02:59:11;9.95;;;5.15;;
68229;SDS011;55048;52.220;5.160;2022-10-20T03:01:38;11.35;;;5.22;;
68229;SDS011;55048;52.220;5.160;2022-10-20T03:04:03;8.77;;;5.72;;
68229;SDS011;55048;52.220;5.160;2022-10-20T03:06:29;8.45;;;5.90;;
68229;SDS011;55048;52.220;5.160;2022-10-20T03:08:55;11.70;;;5.97;;
68229;SDS011;55048;52.220;5.160;2022-10-20T03:11:20;9.55;;;5.22;;
68229;SDS011;55048;52.220;5.160;2022-10-20T03:13:45;10.45;;;6.18;;
68229;SDS011;55048;52.220;5.160;2022-10-20T03:16:11;12.00;;;6.18;;
68229;SDS011;55048;52.220;5.160;2022-10-20T03:18:36;11.07;;;6.10;;
68229;SDS011;55048;52.220;5.160;2022-10-20T03:21:02;11.43;;;6.05;;
68229;SDS011;55048;52.220;5.160;2022-10-20T03:23:27;11.10;;;6.35;;
68229;SDS011;55048;52.220;5.160;2022-10-20T03:25:59;14.48;;;6.05;;
68229;SDS011;55048;52.220;5.160;2022-10-20T03:28:25;8.18;;;5.88;;
68229;SDS011;55048;52.220;5.160;2022-10-20T03:30:51;9.75;;;5.55;;
68229;SDS011;55048;52.220;5.160;2022-10-20T03:33:16;11.45;;;5.93;;
68229;SDS011;55048;52.220;5.160;2022-10-20T03:35:41;9.85;;;6.13;;
68229;SDS011;55048;52.220;5.160;2022-10-20T03:38:07;10.65;;;6.60;;
68229;SDS011;55048;52.220;5.160;2022-10-20T03:40:32;10.85;;;5.72;;
68229;SDS011;55048;52.220;5.160;2022-10-20T03:42:58;11.30;;;5.90;;
68229;SDS011;55048;52.220;5.160;2022-10-20T03:45:23;13.30;;;6.53;;
68229;SDS011;55048;52.220;5.160;2022-10-20T03:47:49;11.93;;;6.80;;
68229;SDS011;55048;52.220;5.160;2022-10-20T03:50:14;12.48;;;6.05;;
68229;SDS011;55048;52.220;5.160;2022-10-20T03:52:40;10.32;;;6.63;;
68229;SDS011;55048;52.220;5.160;2022-10-20T03:55:05;12.18;;;6.55;;
68229;SDS011;55048;52.220;5.160;2022-10-20T03:57:31;12.13;;;6.13;;
68229;SDS011;55048;52.220;5.160;2022-10-20T03:59:57;13.63;;;6.38;;
68229;SDS011;55048;52.220;5.160;2022-10-20T04:02:27;15.95;;;6.25;;
68229;SDS011;55048;52.220;5.160;2022-10-20T04:04:57;11.10;;;6.03;;
68229;SDS011;55048;52.220;5.160;2022-10-20T04:07:23;11.95;;;6.38;;
68229;SDS011;55048;52.220;5.160;2022-10-20T04:09:48;9.60;;;6.30;;
68229;SDS011;55048;52.220;5.160;2022-10-20T04:12:14;11.63;;;6.75;;
68229;SDS011;55048;52.220;5.160;2022-10-20T04:14:39;17.52;;;6.82;;
68229;SDS011;55048;52.220;5.160;2022-10-20T04:17:05;13.57;;;6.88;;
68229;SDS011;55048;52.220;5.160;2022-10-20T04:19:30;11.18;;;6.13;;
68229;SDS011;55048;52.220;5.160;2022-10-20T04:21:56;15.93;;;6.70;;
68229;SDS011;55048;52.220;5.160;2022-10-20T04:24:21;11.40;;;6.30;;
68229;SDS011;55048;52.220;5.160;2022-10-20T04:26:47;11.05;;;6.15;;
68229;SDS011;55048;52.220;5.160;2022-10-20T04:29:12;10.32;;;5.55;;
68229;SDS011;55048;52.220;5.160;2022-10-20T04:31:38;10.00;;;6.07;;
68229;SDS011;55048;52.220;5.160;2022-10-20T04:34:03;20.13;;;6.65;;
68229;SDS011;55048;52.220;5.160;2022-10-20T04:36:29;10.90;;;6.20;;
68229;SDS011;55048;52.220;5.160;2022-10-20T04:38:54;10.68;;;6.88;;
68229;SDS011;55048;52.220;5.160;2022-10-20T04:41:20;13.30;;;6.35;;
68229;SDS011;55048;52.220;5.160;2022-10-20T04:43:48;13.90;;;6.90;;
68229;SDS011;55048;52.220;5.160;2022-10-20T04:46:16;16.35;;;7.00;;
68229;SDS011;55048;52.220;5.160;2022-10-20T04:48:41;11.82;;;6.43;;
68229;SDS011;55048;52.220;5.160;2022-10-20T04:51:09;12.23;;;6.25;;
68229;SDS011;55048;52.220;5.160;2022-10-20T04:53:36;14.18;;;6.78;;
68229;SDS011;55048;52.220;5.160;2022-10-20T04:56:02;13.13;;;7.07;;
68229;SDS011;55048;52.220;5.160;2022-10-20T04:58:30;12.32;;;6.72;;
68229;SDS011;55048;52.220;5.160;2022-10-20T05:01:05;12.15;;;6.95;;
68229;SDS011;55048;52.220;5.160;2022-10-20T05:03:33;8.75;;;6.30;;
68229;SDS011;55048;52.220;5.160;2022-10-20T05:08:41;15.70;;;7.10;;
68229;SDS011;55048;52.220;5.160;2022-10-20T05:11:08;13.20;;;6.90;;
68229;SDS011;55048;52.220;5.160;2022-10-20T05:13:34;12.45;;;7.13;;
68229;SDS011;55048;52.220;5.160;2022-10-20T05:15:59;16.52;;;7.00;;
68229;SDS011;55048;52.220;5.160;2022-10-20T05:18:25;14.38;;;6.68;;
68229;SDS011;55048;52.220;5.160;2022-10-20T05:20:51;14.88;;;6.80;;
68229;SDS011;55048;52.220;5.160;2022-10-20T05:23:16;14.10;;;6.68;;
68229;SDS011;55048;52.220;5.160;2022-10-20T05:25:42;17.10;;;7.63;;
68229;SDS011;55048;52.220;5.160;2022-10-20T05:28:07;11.43;;;6.72;;
68229;SDS011;55048;52.220;5.160;2022-10-20T05:30:33;14.57;;;7.70;;
68229;SDS011;55048;52.220;5.160;2022-10-20T05:32:59;12.60;;;6.53;;
68229;SDS011;55048;52.220;5.160;2022-10-20T05:35:26;9.00;;;6.30;;
68229;SDS011;55048;52.220;5.160;2022-10-20T05:37:52;11.50;;;6.45;;
68229;SDS011;55048;52.220;5.160;2022-10-20T05:40:18;14.38;;;6.63;;
68229;SDS011;55048;52.220;5.160;2022-10-20T05:42:43;14.13;;;6.45;;
68229;SDS011;55048;52.220;5.160;2022-10-20T05:45:09;12.05;;;7.18;;
68229;SDS011;55048;52.220;5.160;2022-10-20T05:47:34;11.38;;;6.20;;
68229;SDS011;55048;52.220;5.160;2022-10-20T05:50:00;16.92;;;7.55;;
68229;SDS011;55048;52.220;5.160;2022-10-20T05:52:25;14.55;;;7.30;;
68229;SDS011;55048;52.220;5.160;2022-10-20T05:54:51;17.13;;;7.45;;
68229;SDS011;55048;52.220;5.160;2022-10-20T05:57:16;19.08;;;8.07;;
68229;SDS011;55048;52.220;5.160;2022-10-20T05:59:42;18.40;;;7.03;;
68229;SDS011;55048;52.220;5.160;2022-10-20T06:02:08;17.08;;;7.25;;
68229;SDS011;55048;52.220;5.160;2022-10-20T06:04:35;12.40;;;7.50;;
68229;SDS011;55048;52.220;5.160;2022-10-20T06:07:01;15.05;;;8.15;;
68229;SDS011;55048;52.220;5.160;2022-10-20T06:09:27;18.55;;;7.53;;
68229;SDS011;55048;52.220;5.160;2022-10-20T06:11:52;13.65;;;7.35;;
68229;SDS011;55048;52.220;5.160;2022-10-20T06:14:18;13.23;;;7.63;;
68229;SDS011;55048;52.220;5.160;2022-10-20T06:16:48;12.73;;;7.15;;
68229;SDS011;55048;52.220;5.160;2022-10-20T06:19:14;13.00;;;7.43;;
68229;SDS011;55048;52.220;5.160;2022-10-20T06:21:40;9.50;;;6.88;;
68229;SDS011;55048;52.220;5.160;2022-10-20T06:24:05;13.27;;;7.28;;
68229;SDS011;55048;52.220;5.160;2022-10-20T06:26:32;12.82;;;7.03;;
68229;SDS011;55048;52.220;5.160;2022-10-20T06:28:58;14.18;;;7.57;;
68229;SDS011;55048;52.220;5.160;2022-10-20T06:31:26;12.27;;;7.85;;
68229;SDS011;55048;52.220;5.160;2022-10-20T06:34:03;15.48;;;7.75;;
68229;SDS011;55048;52.220;5.160;2022-10-20T06:36:33;15.48;;;7.88;;
68229;SDS011;55048;52.220;5.160;2022-10-20T06:39:02;14.00;;;7.47;;
68229;SDS011;55048;52.220;5.160;2022-10-20T06:41:30;11.80;;;7.43;;
68229;SDS011;55048;52.220;5.160;2022-10-20T06:43:56;18.23;;;9.02;;
68229;SDS011;55048;52.220;5.160;2022-10-20T06:46:28;16.17;;;7.75;;
68229;SDS011;55048;52.220;5.160;2022-10-20T06:48:55;18.08;;;8.20;;
68229;SDS011;55048;52.220;5.160;2022-10-20T06:51:23;16.50;;;8.40;;
68229;SDS011;55048;52.220;5.160;2022-10-20T06:53:49;11.90;;;8.63;;
68229;SDS011;55048;52.220;5.160;2022-10-20T06:56:25;17.25;;;7.88;;
68229;SDS011;55048;52.220;5.160;2022-10-20T06:58:54;29.00;;;8.50;;
68229;SDS011;55048;52.220;5.160;2022-10-20T07:01:21;14.52;;;8.35;;
68229;SDS011;55048;52.220;5.160;2022-10-20T07:03:49;15.38;;;8.43;;
68229;SDS011;55048;52.220;5.160;2022-10-20T07:06:22;13.25;;;7.65;;
68229;SDS011;55048;52.220;5.160;2022-10-20T07:08:50;17.13;;;8.63;;
68229;SDS011;55048;52.220;5.160;2022-10-20T07:11:18;14.55;;;8.23;;
68229;SDS011;55048;52.220;5.160;2022-10-20T07:13:45;15.98;;;7.90;;
68229;SDS011;55048;52.220;5.160;2022-10-20T07:16:14;11.05;;;7.63;;
68229;SDS011;55048;52.220;5.160;2022-10-20T07:18:41;17.60;;;8.82;;
68229;SDS011;55048;52.220;5.160;2022-10-20T07:21:09;13.20;;;8.40;;
68229;SDS011;55048;52.220;5.160;2022-10-20T07:23:37;22.63;;;8.50;;
68229;SDS011;55048;52.220;5.160;2022-10-20T07:26:03;15.60;;;8.85;;
68229;SDS011;55048;52.220;5.160;2022-10-20T07:28:35;14.32;;;8.20;;
68229;SDS011;55048;52.220;5.160;2022-10-20T07:31:05;17.15;;;8.63;;
68229;SDS011;55048;52.220;5.160;2022-10-20T07:33:32;15.52;;;8.55;;
68229;SDS011;55048;52.220;5.160;2022-10-20T07:35:58;12.73;;;7.65;;
68229;SDS011;55048;52.220;5.160;2022-10-20T07:38:24;16.50;;;8.27;;
68229;SDS011;55048;52.220;5.160;2022-10-20T07:40:50;12.32;;;8.00;;
68229;SDS011;55048;52.220;5.160;2022-10-20T07:43:16;13.88;;;8.57;;
68229;SDS011;55048;52.220;5.160;2022-10-20T07:45:41;14.55;;;8.63;;
68229;SDS011;55048;52.220;5.160;2022-10-20T07:48:07;17.77;;;8.80;;
68229;SDS011;55048;52.220;5.160;2022-10-20T07:50:34;17.35;;;8.38;;
68229;SDS011;55048;52.220;5.160;2022-10-20T07:53:00;14.25;;;7.88;;
68229;SDS011;55048;52.220;5.160;2022-10-20T07:55:26;18.90;;;7.95;;
68229;SDS011;55048;52.220;5.160;2022-10-20T07:57:51;14.15;;;7.45;;
68229;SDS011;55048;52.220;5.160;2022-10-20T08:00:17;13.57;;;8.00;;
68229;SDS011;55048;52.220;5.160;2022-10-20T08:02:42;13.63;;;7.85;;
68229;SDS011;55048;52.220;5.160;2022-10-20T08:05:09;14.15;;;7.45;;
68229;SDS011;55048;52.220;5.160;2022-10-20T08:07:35;12.57;;;7.53;;
68229;SDS011;55048;52.220;5.160;2022-10-20T08:10:00;12.85;;;7.43;;
68229;SDS011;55048;52.220;5.160;2022-10-20T08:12:26;13.65;;;7.70;;
68229;SDS011;55048;52.220;5.160;2022-10-20T08:14:51;14.48;;;7.65;;
68229;SDS011;55048;52.220;5.160;2022-10-20T08:17:17;16.23;;;7.90;;
68229;SDS011;55048;52.220;5.160;2022-10-20T08:19:43;12.07;;;7.95;;
68229;SDS011;55048;52.220;5.160;2022-10-20T08:22:08;17.88;;;7.80;;
68229;SDS011;55048;52.220;5.160;2022-10-20T08:24:34;15.63;;;7.57;;
68229;SDS011;55048;52.220;5.160;2022-10-20T08:27:02;9.98;;;7.05;;
68229;SDS011;55048;52.220;5.160;2022-10-20T08:29:28;13.07;;;6.95;;
68229;SDS011;55048;52.220;5.160;2022-10-20T08:31:53;15.25;;;6.68;;
68229;SDS011;55048;52.220;5.160;2022-10-20T08:34:19;14.75;;;7.28;;
68229;SDS011;55048;52.220;5.160;2022-10-20T08:36:44;15.00;;;7.13;;
68229;SDS011;55048;52.220;5.160;2022-10-20T08:39:10;10.98;;;7.47;;
68229;SDS011;55048;52.220;5.160;2022-10-20T08:41:36;12.88;;;7.53;;
68229;SDS011;55048;52.220;5.160;2022-10-20T08:44:05;14.88;;;6.82;;
68229;SDS011;55048;52.220;5.160;2022-10-20T08:46:35;16.50;;;6.45;;
68229;SDS011;55048;52.220;5.160;2022-10-20T08:49:02;11.23;;;7.15;;
68229;SDS011;55048;52.220;5.160;2022-10-20T08:51:32;13.35;;;7.57;;
68229;SDS011;55048;52.220;5.160;2022-10-20T08:54:02;12.57;;;7.72;;
68229;SDS011;55048;52.220;5.160;2022-10-20T08:56:30;16.45;;;7.57;;
68229;SDS011;55048;52.220;5.160;2022-10-20T08:58:58;11.77;;;7.57;;
68229;SDS011;55048;52.220;5.160;2022-10-20T09:04:09;15.10;;;6.90;;
68229;SDS011;55048;52.220;5.160;2022-10-20T09:06:43;15.20;;;7.20;;
68229;SDS011;55048;52.220;5.160;2022-10-20T09:09:12;14.70;;;6.10;;
68229;SDS011;55048;52.220;5.160;2022-10-20T09:11:42;12.88;;;6.25;;
68229;SDS011;55048;52.220;5.160;2022-10-20T09:14:17;15.93;;;6.88;;
68229;SDS011;55048;52.220;5.160;2022-10-20T09:16:55;10.35;;;6.47;;
68229;SDS011;55048;52.220;5.160;2022-10-20T09:19:26;14.75;;;7.30;;
68229;SDS011;55048;52.220;5.160;2022-10-20T09:21:57;12.43;;;6.37;;
68229;SDS011;55048;52.220;5.160;2022-10-20T09:24:28;9.88;;;6.95;;
68229;SDS011;55048;52.220;5.160;2022-10-20T09:26:56;9.10;;;6.10;;
68229;SDS011;55048;52.220;5.160;2022-10-20T09:29:40;13.70;;;6.72;;
68229;SDS011;55048;52.220;5.160;2022-10-20T09:34:43;12.40;;;6.40;;
68229;SDS011;55048;52.220;5.160;2022-10-20T09:42:17;10.20;;;6.88;;
68229;SDS011;55048;52.220;5.160;2022-10-20T09:44:55;11.93;;;6.68;;
68229;SDS011;55048;52.220;5.160;2022-10-20T09:47:21;19.77;;;6.80;;
68229;SDS011;55048;52.220;5.160;2022-10-20T09:49:51;10.80;;;6.53;;
68229;SDS011;55048;52.220;5.160;2022-10-20T09:52:22;13.00;;;6.30;;
68229;SDS011;55048;52.220;5.160;2022-10-20T09:54:53;12.77;;;6.35;;
68229;SDS011;55048;52.220;5.160;2022-10-20T09:57:24;13.38;;;6.80;;
68229;SDS011;55048;52.220;5.160;2022-10-20T09:59:50;10.80;;;6.47;;
68229;SDS011;55048;52.220;5.160;2022-10-20T10:04:47;11.93;;;6.93;;
68229;SDS011;55048;52.220;5.160;2022-10-20T10:12:22;12.57;;;6.65;;
68229;SDS011;55048;52.220;5.160;2022-10-20T10:14:51;11.25;;;6.82;;
68229;SDS011;55048;52.220;5.160;2022-10-20T10:17:31;12.50;;;7.60;;
68229;SDS011;55048;52.220;5.160;2022-10-20T10:20:06;16.77;;;7.97;;
68229;SDS011;55048;52.220;5.160;2022-10-20T10:23:15;11.90;;;7.78;;
68229;SDS011;55048;52.220;5.160;2022-10-20T10:25:44;14.73;;;7.55;;
68229;SDS011;55048;52.220;5.160;2022-10-20T10:28:19;12.77;;;7.88;;
68229;SDS011;55048;52.220;5.160;2022-10-20T10:31:12;16.05;;;8.57;;
68229;SDS011;55048;52.220;5.160;2022-10-20T10:33:42;17.77;;;8.15;;
68229;SDS011;55048;52.220;5.160;2022-10-20T10:36:14;13.10;;;8.18;;
68229;SDS011;55048;52.220;5.160;2022-10-20T10:39:03;11.55;;;7.40;;
68229;SDS011;55048;52.220;5.160;2022-10-20T10:58:21;14.07;;;9.18;;
68229;SDS011;55048;52.220;5.160;2022-10-20T11:03:52;17.00;;;9.25;;
68229;SDS011;55048;52.220;5.160;2022-10-20T11:06:27;15.30;;;10.18;;
68229;SDS011;55048;52.220;5.160;2022-10-20T11:12:23;19.08;;;9.93;;
68229;SDS011;55048;52.220;5.160;2022-10-20T11:14:48;18.55;;;9.63;;
68229;SDS011;55048;52.220;5.160;2022-10-20T11:17:53;17.00;;;9.98;;
68229;SDS011;55048;52.220;5.160;2022-10-20T11:25:51;21.10;;;10.07;;
68229;SDS011;55048;52.220;5.160;2022-10-20T11:28:31;18.73;;;11.32;;
68229;SDS011;55048;52.220;5.160;2022-10-20T11:31:03;23.08;;;10.95;;
68229;SDS011;55048;52.220;5.160;2022-10-20T11:33:42;22.83;;;11.33;;
68229;SDS011;55048;52.220;5.160;2022-10-20T11:36:24;19.65;;;11.63;;
68229;SDS011;55048;52.220;5.160;2022-10-20T11:39:18;22.48;;;11.77;;
68229;SDS011;55048;52.220;5.160;2022-10-20T12:08:20;24.20;;;12.23;;
68229;SDS011;55048;52.220;5.160;2022-10-20T12:11:31;21.15;;;11.77;;
68229;SDS011;55048;52.220;5.160;2022-10-20T12:21:53;24.20;;;13.57;;
68229;SDS011;55048;52.220;5.160;2022-10-20T12:27:43;30.30;;;13.10;;
68229;SDS011;55048;52.220;5.160;2022-10-20T12:30:56;26.08;;;13.95;;
68229;SDS011;55048;52.220;5.160;2022-10-20T12:34:55;33.47;;;15.05;;
68229;SDS011;55048;52.220;5.160;2022-10-20T12:37:26;34.38;;;15.65;;
68229;SDS011;55048;52.220;5.160;2022-10-20T12:43:14;25.23;;;14.43;;
68229;SDS011;55048;52.220;5.160;2022-10-20T12:46:10;33.28;;;15.73;;
68229;SDS011;55048;52.220;5.160;2022-10-20T12:48:51;28.10;;;15.90;;
68229;SDS011;55048;52.220;5.160;2022-10-20T12:51:31;29.70;;;15.88;;
68229;SDS011;55048;52.220;5.160;2022-10-20T12:56:58;32.08;;;16.83;;
68229;SDS011;55048;52.220;5.160;2022-10-20T12:59:51;36.38;;;16.35;;
68229;SDS011;55048;52.220;5.160;2022-10-20T13:02:32;28.67;;;15.77;;
68229;SDS011;55048;52.220;5.160;2022-10-20T13:08:33;26.20;;;15.57;;
68229;SDS011;55048;52.220;5.160;2022-10-20T13:14:48;33.08;;;16.83;;
68229;SDS011;55048;52.220;5.160;2022-10-20T13:17:43;29.55;;;15.18;;
68229;SDS011;55048;52.220;5.160;2022-10-20T13:29:01;30.23;;;16.17;;
68229;SDS011;55048;52.220;5.160;2022-10-20T13:41:03;26.05;;;15.20;;
68229;SDS011;55048;52.220;5.160;2022-10-20T13:44:06;27.48;;;16.35;;
68229;SDS011;55048;52.220;5.160;2022-10-20T13:50:25;28.23;;;15.82;;
68229;SDS011;55048;52.220;5.160;2022-10-20T13:53:35;26.27;;;15.55;;
68229;SDS011;55048;52.220;5.160;2022-10-20T13:59:00;28.38;;;16.48;;
68229;SDS011;55048;52.220;5.160;2022-10-20T14:01:28;34.00;;;16.67;;
68229;SDS011;55048;52.220;5.160;2022-10-20T14:13:42;30.58;;;16.77;;
68229;SDS011;55048;52.220;5.160;2022-10-20T14:16:58;32.70;;;17.52;;
68229;SDS011;55048;52.220;5.160;2022-10-20T14:20:16;35.50;;;19.85;;
68229;SDS011;55048;52.220;5.160;2022-10-20T14:26:59;29.23;;;17.67;;
68229;SDS011;55048;52.220;5.160;2022-10-20T14:37:00;31.10;;;15.85;;
68229;SDS011;55048;52.220;5.160;2022-10-20T14:42:02;31.00;;;17.65;;
68229;SDS011;55048;52.220;5.160;2022-10-20T14:44:29;35.92;;;17.77;;
68229;SDS011;55048;52.220;5.160;2022-10-20T14:46:56;30.67;;;17.50;;
68229;SDS011;55048;52.220;5.160;2022-10-20T14:49:30;31.67;;;16.98;;
68229;SDS011;55048;52.220;5.160;2022-10-20T14:52:20;27.95;;;16.92;;
68229;SDS011;55048;52.220;5.160;2022-10-20T14:54:50;31.98;;;17.48;;
68229;SDS011;55048;52.220;5.160;2022-10-20T14:59:52;30.67;;;18.15;;
68229;SDS011;55048;52.220;5.160;2022-10-20T15:02:32;38.75;;;19.00;;
68229;SDS011;55048;52.220;5.160;2022-10-20T15:05:21;29.15;;;16.55;;
68229;SDS011;55048;52.220;5.160;2022-10-20T15:07:57;29.33;;;18.00;;
68229;SDS011;55048;52.220;5.160;2022-10-20T15:10:30;37.97;;;17.95;;
68229;SDS011;55048;52.220;5.160;2022-10-20T15:13:01;40.17;;;19.67;;
68229;SDS011;55048;52.220;5.160;2022-10-20T15:15:36;31.83;;;18.50;;
68229;SDS011;55048;52.220;5.160;2022-10-20T15:20:38;32.15;;;18.30;;
68229;SDS011;55048;52.220;5.160;2022-10-20T15:23:15;30.15;;;17.65;;
68229;SDS011;55048;52.220;5.160;2022-10-20T15:39:02;54.50;;;28.52;;
68229;SDS011;55048;52.220;5.160;2022-10-20T15:41:29;46.55;;;22.88;;
68229;SDS011;55048;52.220;5.160;2022-10-20T15:44:01;42.10;;;20.50;;
68229;SDS011;55048;52.220;5.160;2022-10-20T15:47:02;44.05;;;20.45;;
68229;SDS011;55048;52.220;5.160;2022-10-20T15:49:28;35.38;;;20.85;;
68229;SDS011;55048;52.220;5.160;2022-10-20T15:51:54;41.80;;;21.73;;
68229;SDS011;55048;52.220;5.160;2022-10-20T15:54:20;36.67;;;20.10;;
68229;SDS011;55048;52.220;5.160;2022-10-20T15:56:47;42.95;;;19.90;;
68229;SDS011;55048;52.220;5.160;2022-10-20T15:59:18;38.58;;;19.98;;
68229;SDS011;55048;52.220;5.160;2022-10-20T16:01:43;36.85;;;19.02;;
68229;SDS011;55048;52.220;5.160;2022-10-20T16:04:20;42.92;;;21.23;;
68229;SDS011;55048;52.220;5.160;2022-10-20T16:06:59;44.78;;;21.58;;
68229;SDS011;55048;52.220;5.160;2022-10-20T16:09:26;45.42;;;21.90;;
68229;SDS011;55048;52.220;5.160;2022-10-20T16:11:52;46.88;;;22.23;;
68229;SDS011;55048;52.220;5.160;2022-10-20T16:14:17;46.25;;;21.67;;
68229;SDS011;55048;52.220;5.160;2022-10-20T16:16:42;49.90;;;22.63;;
68229;SDS011;55048;52.220;5.160;2022-10-20T16:19:09;47.35;;;22.60;;
68229;SDS011;55048;52.220;5.160;2022-10-20T16:21:34;50.60;;;21.63;;
68229;SDS011;55048;52.220;5.160;2022-10-20T16:24:00;42.22;;;21.55;;
68229;SDS011;55048;52.220;5.160;2022-10-20T16:26:30;40.25;;;21.48;;
68229;SDS011;55048;52.220;5.160;2022-10-20T16:28:55;43.95;;;20.98;;
68229;SDS011;55048;52.220;5.160;2022-10-20T16:31:21;50.53;;;22.67;;
68229;SDS011;55048;52.220;5.160;2022-10-20T16:33:48;50.05;;;23.10;;
68229;SDS011;55048;52.220;5.160;2022-10-20T16:36:14;47.00;;;22.85;;
68229;SDS011;55048;52.220;5.160;2022-10-20T16:38:41;39.88;;;21.38;;
68229;SDS011;55048;52.220;5.160;2022-10-20T16:41:11;47.65;;;23.02;;
68229;SDS011;55048;52.220;5.160;2022-10-20T16:43:44;45.63;;;23.02;;
68229;SDS011;55048;52.220;5.160;2022-10-20T16:46:11;54.50;;;23.58;;
68229;SDS011;55048;52.220;5.160;2022-10-20T16:48:37;45.25;;;23.23;;
68229;SDS011;55048;52.220;5.160;2022-10-20T16:51:04;58.17;;;24.50;;
68229;SDS011;55048;52.220;5.160;2022-10-20T16:53:30;56.33;;;24.35;;
68229;SDS011;55048;52.220;5.160;2022-10-20T16:55:58;55.05;;;24.45;;
68229;SDS011;55048;52.220;5.160;2022-10-20T16:58:34;56.88;;;24.80;;
68229;SDS011;55048;52.220;5.160;2022-10-20T17:03:30;57.45;;;25.50;;
68229;SDS011;55048;52.220;5.160;2022-10-20T17:05:57;52.60;;;24.40;;
68229;SDS011;55048;52.220;5.160;2022-10-20T17:08:26;74.18;;;27.77;;
68229;SDS011;55048;52.220;5.160;2022-10-20T17:10:56;55.17;;;24.15;;
68229;SDS011;55048;52.220;5.160;2022-10-20T17:13:28;59.17;;;24.35;;
68229;SDS011;55048;52.220;5.160;2022-10-20T17:19:09;54.90;;;23.63;;
68229;SDS011;55048;52.220;5.160;2022-10-20T17:21:42;44.20;;;21.02;;
68229;SDS011;55048;52.220;5.160;2022-10-20T17:24:12;55.20;;;23.00;;
68229;SDS011;55048;52.220;5.160;2022-10-20T17:26:38;65.95;;;24.85;;
68229;SDS011;55048;52.220;5.160;2022-10-20T17:29:05;59.10;;;24.15;;
68229;SDS011;55048;52.220;5.160;2022-10-20T17:31:43;56.38;;;24.73;;
68229;SDS011;55048;52.220;5.160;2022-10-20T17:34:13;67.13;;;25.17;;
68229;SDS011;55048;52.220;5.160;2022-10-20T17:36:38;59.67;;;23.60;;
68229;SDS011;55048;52.220;5.160;2022-10-20T17:39:04;61.92;;;25.52;;
68229;SDS011;55048;52.220;5.160;2022-10-20T17:41:34;59.17;;;24.05;;
68229;SDS011;55048;52.220;5.160;2022-10-20T17:44:17;56.25;;;24.40;;
68229;SDS011;55048;52.220;5.160;2022-10-20T17:46:44;54.00;;;22.90;;
68229;SDS011;55048;52.220;5.160;2022-10-20T17:49:09;54.22;;;23.00;;
68229;SDS011;55048;52.220;5.160;2022-10-20T17:51:34;50.50;;;22.70;;
68229;SDS011;55048;52.220;5.160;2022-10-20T17:54:00;49.83;;;21.90;;
68229;SDS011;55048;52.220;5.160;2022-10-20T17:56:27;65.50;;;24.40;;
68229;SDS011;55048;52.220;5.160;2022-10-20T17:58:59;46.35;;;21.60;;
68229;SDS011;55048;52.220;5.160;2022-10-20T18:01:27;47.95;;;22.23;;
68229;SDS011;55048;52.220;5.160;2022-10-20T18:04:00;55.35;;;22.27;;
68229;SDS011;55048;52.220;5.160;2022-10-20T18:06:45;60.30;;;23.17;;
68229;SDS011;55048;52.220;5.160;2022-10-20T18:09:15;53.72;;;23.13;;